FIN9XG EFRO-EFHK
Flight info
| Callsign | FIN9XG |
|---|---|
| Flight time | 1h 2m |
| Altitude | 37000 |
| Route | RENVI Y86 LUSEP |
| Aircraft | A319/M-SDE1E2E3FGIJ1M1RWXYZ/LB1 |
Departure
| Time | 2026-04-21 14:54 |
|---|---|
| Airport | Rovaniemi Airport (EFRO) |
Arrival
| Time | 2026-04-21 15:57 |
|---|---|
| Airport | Helsinki Vantaa Airport (EFHK) |
| Time | Latitude | Longitude | Altitude | Speed | Heading |
|---|---|---|---|---|---|
| 2026-04-21 14:26 | 66.55825 | 25.82627 | 627 ft | 0 kts | 138° |
| 2026-04-21 14:48 | 66.55838 | 25.82597 | 636 ft | 4 kts | 134° |
| 2026-04-21 14:48 | 66.55853 | 25.82559 | 634 ft | 4 kts | 187° |
| 2026-04-21 14:48 | 66.55854 | 25.82557 | 634 ft | 0 kts | 218° |
| 2026-04-21 14:50 | 66.55849 | 25.82538 | 634 ft | 3 kts | 237° |
| 2026-04-21 14:50 | 66.55842 | 25.82435 | 631 ft | 8 kts | 261° |
| 2026-04-21 14:51 | 66.55809 | 25.82300 | 631 ft | 11 kts | 217° |
| 2026-04-21 14:51 | 66.55726 | 25.82142 | 631 ft | 18 kts | 217° |
| 2026-04-21 14:51 | 66.55613 | 25.81925 | 628 ft | 23 kts | 218° |
| 2026-04-21 14:51 | 66.55487 | 25.81684 | 632 ft | 21 kts | 217° |
| 2026-04-21 14:52 | 66.55379 | 25.81478 | 638 ft | 17 kts | 217° |
| 2026-04-21 14:52 | 66.55337 | 25.81334 | 638 ft | 5 kts | 262° |
| 2026-04-21 14:52 | 66.55342 | 25.81250 | 638 ft | 5 kts | 287° |
| 2026-04-21 14:52 | 66.55364 | 25.81170 | 640 ft | 7 kts | 315° |
| 2026-04-21 14:53 | 66.55434 | 25.81108 | 641 ft | 16 kts | 1° |
| 2026-04-21 14:53 | 66.55540 | 25.81247 | 636 ft | 20 kts | 37° |
| 2026-04-21 14:53 | 66.55749 | 25.81640 | 630 ft | 73 kts | 37° |
| 2026-04-21 14:53 | 66.56341 | 25.82768 | 648 ft | 138 kts | 37° |
| 2026-04-21 14:54 | 66.57203 | 25.84390 | 969 ft | 161 kts | 28° |
| 2026-04-21 14:54 | 66.58102 | 25.86150 | 1707 ft | 165 kts | 31° |
| 2026-04-21 14:54 | 66.59019 | 25.87897 | 2421 ft | 166 kts | 31° |
| 2026-04-21 14:54 | 66.59990 | 25.89704 | 2943 ft | 183 kts | 31° |
| 2026-04-21 14:55 | 66.61020 | 25.91832 | 3365 ft | 208 kts | 44° |
| 2026-04-21 14:55 | 66.61467 | 25.95427 | 3988 ft | 231 kts | 90° |
| 2026-04-21 14:55 | 66.60923 | 25.99440 | 4546 ft | 255 kts | 119° |
| 2026-04-21 14:55 | 66.59889 | 26.03194 | 5330 ft | 265 kts | 128° |
| 2026-04-21 14:56 | 66.58461 | 26.06186 | 6177 ft | 272 kts | 157° |
| 2026-04-21 14:56 | 66.56664 | 26.07421 | 7077 ft | 271 kts | 177° |
| 2026-04-21 14:56 | 66.54734 | 26.07233 | 7640 ft | 285 kts | 197° |
| 2026-04-21 14:56 | 66.52882 | 26.05434 | 8449 ft | 288 kts | 210° |
| 2026-04-21 14:57 | 66.51048 | 26.03272 | 9364 ft | 294 kts | 210° |
| 2026-04-21 14:57 | 66.49171 | 26.01075 | 10224 ft | 301 kts | 209° |
| 2026-04-21 14:57 | 66.47206 | 25.98778 | 10658 ft | 323 kts | 209° |
| 2026-04-21 14:57 | 66.45105 | 25.96320 | 11121 ft | 340 kts | 208° |
| 2026-04-21 14:58 | 66.42954 | 25.93806 | 11875 ft | 347 kts | 208° |
| 2026-04-21 14:58 | 66.40747 | 25.91232 | 12705 ft | 352 kts | 208° |
| 2026-04-21 14:58 | 66.38510 | 25.88629 | 13516 ft | 357 kts | 208° |
| 2026-04-21 14:58 | 66.36242 | 25.85995 | 14269 ft | 361 kts | 208° |
| 2026-04-21 14:59 | 66.33952 | 25.83338 | 15001 ft | 364 kts | 208° |
| 2026-04-21 14:59 | 66.31634 | 25.80655 | 15737 ft | 368 kts | 208° |
| 2026-04-21 14:59 | 66.29292 | 25.77953 | 16461 ft | 372 kts | 208° |
| 2026-04-21 14:59 | 66.26936 | 25.75236 | 17168 ft | 376 kts | 208° |
| 2026-04-21 15:00 | 66.24577 | 25.72525 | 17866 ft | 380 kts | 208° |
| 2026-04-21 15:00 | 66.22157 | 25.69750 | 18548 ft | 384 kts | 208° |
| 2026-04-21 15:00 | 66.19720 | 25.66957 | 19160 ft | 388 kts | 208° |
| 2026-04-21 15:00 | 66.17256 | 25.64134 | 19762 ft | 392 kts | 208° |
| 2026-04-21 15:01 | 66.14796 | 25.61328 | 20360 ft | 396 kts | 208° |
| 2026-04-21 15:01 | 66.12277 | 25.58464 | 20963 ft | 400 kts | 208° |
| 2026-04-21 15:01 | 66.09721 | 25.55649 | 21549 ft | 406 kts | 204° |
| 2026-04-21 15:01 | 66.06981 | 25.53676 | 22108 ft | 414 kts | 193° |
| 2026-04-21 15:02 | 66.04088 | 25.52904 | 22676 ft | 421 kts | 183° |
| 2026-04-21 15:02 | 66.01140 | 25.52752 | 23265 ft | 425 kts | 182° |
| 2026-04-21 15:02 | 65.98201 | 25.52589 | 23790 ft | 429 kts | 182° |
| 2026-04-21 15:02 | 65.95197 | 25.52411 | 24298 ft | 432 kts | 182° |
| 2026-04-21 15:03 | 65.92179 | 25.52231 | 24801 ft | 433 kts | 182° |
| 2026-04-21 15:03 | 65.89155 | 25.52047 | 25317 ft | 435 kts | 182° |
| 2026-04-21 15:03 | 65.86112 | 25.51861 | 25823 ft | 437 kts | 182° |
| 2026-04-21 15:03 | 65.83104 | 25.51681 | 26316 ft | 439 kts | 182° |
| 2026-04-21 15:04 | 65.80040 | 25.51497 | 26820 ft | 441 kts | 182° |
| 2026-04-21 15:04 | 65.76960 | 25.51312 | 27313 ft | 442 kts | 182° |
| 2026-04-21 15:04 | 65.73875 | 25.51128 | 27804 ft | 444 kts | 182° |
| 2026-04-21 15:04 | 65.70773 | 25.50945 | 28292 ft | 446 kts | 182° |
| 2026-04-21 15:05 | 65.67655 | 25.50762 | 28767 ft | 448 kts | 181° |
| 2026-04-21 15:05 | 65.61432 | 25.50400 | 29692 ft | 452 kts | 181° |
| 2026-04-21 15:05 | 65.58274 | 25.50221 | 30134 ft | 454 kts | 181° |
| 2026-04-21 15:06 | 65.55103 | 25.50032 | 30491 ft | 456 kts | 181° |
| 2026-04-21 15:06 | 65.51917 | 25.49839 | 30834 ft | 459 kts | 181° |
| 2026-04-21 15:06 | 65.48710 | 25.49648 | 31150 ft | 462 kts | 181° |
| 2026-04-21 15:06 | 65.45480 | 25.49455 | 31466 ft | 464 kts | 181° |
| 2026-04-21 15:07 | 65.42241 | 25.49262 | 31764 ft | 467 kts | 181° |
| 2026-04-21 15:07 | 65.39029 | 25.49074 | 32181 ft | 467 kts | 181° |
| 2026-04-21 15:07 | 65.35771 | 25.48886 | 32631 ft | 466 kts | 181° |
| 2026-04-21 15:07 | 65.32525 | 25.48700 | 33062 ft | 466 kts | 181° |
| 2026-04-21 15:08 | 65.29278 | 25.48514 | 33484 ft | 466 kts | 181° |
| 2026-04-21 15:08 | 65.26036 | 25.48327 | 33903 ft | 466 kts | 181° |
| 2026-04-21 15:08 | 65.22818 | 25.48141 | 34295 ft | 466 kts | 181° |
| 2026-04-21 15:08 | 65.19574 | 25.47959 | 34643 ft | 466 kts | 181° |
| 2026-04-21 15:09 | 65.16321 | 25.47772 | 34971 ft | 467 kts | 181° |
| 2026-04-21 15:09 | 65.13064 | 25.47585 | 35280 ft | 467 kts | 181° |
| 2026-04-21 15:09 | 65.09809 | 25.47401 | 35589 ft | 467 kts | 181° |
| 2026-04-21 15:09 | 65.06550 | 25.47218 | 35902 ft | 467 kts | 181° |
| 2026-04-21 15:10 | 65.04401 | 25.47094 | 36136 ft | 466 kts | 181° |
| 2026-04-21 15:10 | 65.00100 | 25.46839 | 36567 ft | 465 kts | 181° |
| 2026-04-21 15:10 | 64.97952 | 25.46717 | 36759 ft | 465 kts | 181° |
| 2026-04-21 15:10 | 64.93617 | 25.46477 | 37065 ft | 467 kts | 181° |
| 2026-04-21 15:11 | 64.88225 | 25.46175 | 37111 ft | 463 kts | 181° |
| 2026-04-21 15:11 | 64.81791 | 25.45802 | 37113 ft | 462 kts | 181° |
| 2026-04-21 15:12 | 64.75363 | 25.45428 | 37116 ft | 462 kts | 181° |
| 2026-04-21 15:12 | 64.68955 | 25.45076 | 37125 ft | 462 kts | 181° |
| 2026-04-21 15:13 | 64.62508 | 25.44724 | 37133 ft | 462 kts | 181° |
| 2026-04-21 15:13 | 64.56106 | 25.44364 | 37142 ft | 462 kts | 181° |
| 2026-04-21 15:14 | 64.49664 | 25.44010 | 37139 ft | 462 kts | 181° |
| 2026-04-21 15:14 | 64.43259 | 25.43655 | 37132 ft | 462 kts | 181° |
| 2026-04-21 15:15 | 64.36820 | 25.43300 | 37134 ft | 462 kts | 181° |
| 2026-04-21 15:15 | 64.30374 | 25.42953 | 37128 ft | 462 kts | 181° |
| 2026-04-21 15:16 | 64.23979 | 25.42610 | 37159 ft | 462 kts | 181° |
| 2026-04-21 15:16 | 64.17538 | 25.42265 | 37157 ft | 462 kts | 181° |
| 2026-04-21 15:17 | 64.11126 | 25.41908 | 37147 ft | 462 kts | 181° |
| 2026-04-21 15:17 | 64.04674 | 25.41558 | 37148 ft | 462 kts | 181° |
| 2026-04-21 15:18 | 63.98268 | 25.41225 | 37142 ft | 462 kts | 181° |
| 2026-04-21 15:18 | 63.91819 | 25.40894 | 37140 ft | 462 kts | 181° |
| 2026-04-21 15:19 | 63.85412 | 25.40558 | 37142 ft | 463 kts | 181° |
| 2026-04-21 15:19 | 63.78950 | 25.40219 | 37130 ft | 463 kts | 181° |
| 2026-04-21 15:20 | 63.72505 | 25.39893 | 37133 ft | 463 kts | 181° |
| 2026-04-21 15:20 | 63.66100 | 25.39550 | 37123 ft | 463 kts | 181° |
| 2026-04-21 15:21 | 63.59641 | 25.39203 | 37128 ft | 464 kts | 181° |
| 2026-04-21 15:21 | 63.53174 | 25.38868 | 37144 ft | 464 kts | 181° |
| 2026-04-21 15:22 | 63.46762 | 25.38540 | 37141 ft | 464 kts | 181° |
| 2026-04-21 15:22 | 63.40294 | 25.38213 | 37138 ft | 463 kts | 181° |
| 2026-04-21 15:23 | 63.33873 | 25.37884 | 37135 ft | 463 kts | 181° |
| 2026-04-21 15:23 | 63.27406 | 25.37552 | 37132 ft | 464 kts | 181° |
| 2026-04-21 15:24 | 63.20939 | 25.37228 | 37128 ft | 464 kts | 180° |
| 2026-04-21 15:24 | 63.14503 | 25.36915 | 37130 ft | 464 kts | 181° |
| 2026-04-21 15:25 | 63.08026 | 25.36569 | 37136 ft | 465 kts | 181° |
| 2026-04-21 15:25 | 63.01578 | 25.36260 | 37140 ft | 465 kts | 180° |
| 2026-04-21 15:26 | 62.95086 | 25.35939 | 37138 ft | 466 kts | 180° |
| 2026-04-21 15:26 | 62.88634 | 25.35620 | 37132 ft | 466 kts | 180° |
| 2026-04-21 15:27 | 62.82131 | 25.35277 | 37136 ft | 467 kts | 180° |
| 2026-04-21 15:27 | 62.75671 | 25.34940 | 37161 ft | 467 kts | 180° |
| 2026-04-21 15:28 | 62.69163 | 25.34617 | 37152 ft | 466 kts | 180° |
| 2026-04-21 15:28 | 62.62658 | 25.34309 | 37141 ft | 466 kts | 180° |
| 2026-04-21 15:29 | 62.56200 | 25.33995 | 37132 ft | 467 kts | 180° |
| 2026-04-21 15:29 | 62.49702 | 25.33669 | 37127 ft | 467 kts | 180° |
| 2026-04-21 15:30 | 62.43206 | 25.33367 | 37124 ft | 467 kts | 180° |
| 2026-04-21 15:30 | 62.36742 | 25.33047 | 37123 ft | 466 kts | 180° |
| 2026-04-21 15:31 | 62.30241 | 25.32722 | 37123 ft | 466 kts | 180° |
| 2026-04-21 15:31 | 62.23738 | 25.32401 | 37126 ft | 466 kts | 180° |
| 2026-04-21 15:32 | 62.17281 | 25.32112 | 37128 ft | 466 kts | 180° |
| 2026-04-21 15:32 | 62.10779 | 25.31814 | 36903 ft | 467 kts | 180° |
| 2026-04-21 15:33 | 62.07529 | 25.31659 | 36639 ft | 465 kts | 180° |
| 2026-04-21 15:33 | 62.04293 | 25.31502 | 36407 ft | 464 kts | 180° |
| 2026-04-21 15:33 | 62.01066 | 25.31343 | 36161 ft | 463 kts | 180° |
| 2026-04-21 15:33 | 61.97837 | 25.31185 | 35909 ft | 463 kts | 180° |
| 2026-04-21 15:34 | 61.94612 | 25.31029 | 35654 ft | 463 kts | 179° |
| 2026-04-21 15:34 | 61.91407 | 25.30875 | 35237 ft | 459 kts | 180° |
| 2026-04-21 15:34 | 61.88250 | 25.30134 | 34172 ft | 470 kts | 191° |
| 2026-04-21 15:34 | 61.85008 | 25.28620 | 32873 ft | 481 kts | 191° |
| 2026-04-21 15:35 | 61.81759 | 25.27038 | 32407 ft | 472 kts | 191° |
| 2026-04-21 15:35 | 61.78592 | 25.25465 | 31865 ft | 462 kts | 191° |
| 2026-04-21 15:35 | 61.75494 | 25.23919 | 31174 ft | 454 kts | 191° |
| 2026-04-21 15:35 | 61.72438 | 25.22414 | 30490 ft | 446 kts | 190° |
| 2026-04-21 15:36 | 61.69464 | 25.20972 | 29787 ft | 440 kts | 190° |
| 2026-04-21 15:36 | 61.66491 | 25.19549 | 29150 ft | 436 kts | 190° |
| 2026-04-21 15:36 | 61.63546 | 25.18150 | 28652 ft | 429 kts | 190° |
| 2026-04-21 15:36 | 61.60637 | 25.16769 | 28144 ft | 423 kts | 190° |
| 2026-04-21 15:37 | 61.57773 | 25.15409 | 27663 ft | 418 kts | 190° |
| 2026-04-21 15:37 | 61.54958 | 25.14078 | 27186 ft | 413 kts | 190° |
| 2026-04-21 15:37 | 61.52211 | 25.12776 | 26735 ft | 408 kts | 190° |
| 2026-04-21 15:37 | 61.49453 | 25.11472 | 26273 ft | 405 kts | 190° |
| 2026-04-21 15:38 | 61.46708 | 25.10179 | 25815 ft | 402 kts | 191° |
| 2026-04-21 15:38 | 61.43982 | 25.08896 | 25354 ft | 400 kts | 191° |
| 2026-04-21 15:38 | 61.41269 | 25.07618 | 24883 ft | 398 kts | 191° |
| 2026-04-21 15:38 | 61.38569 | 25.06349 | 24402 ft | 397 kts | 191° |
| 2026-04-21 15:39 | 61.35876 | 25.05087 | 23908 ft | 395 kts | 191° |
| 2026-04-21 15:39 | 61.33195 | 25.03831 | 23373 ft | 395 kts | 191° |
| 2026-04-21 15:39 | 61.30522 | 25.02579 | 22875 ft | 392 kts | 191° |
| 2026-04-21 15:39 | 61.27872 | 25.01341 | 22376 ft | 389 kts | 191° |
| 2026-04-21 15:40 | 61.25267 | 25.00128 | 21894 ft | 387 kts | 191° |
| 2026-04-21 15:40 | 61.22645 | 24.98908 | 21404 ft | 384 kts | 191° |
| 2026-04-21 15:40 | 61.20042 | 24.97699 | 20918 ft | 382 kts | 191° |
| 2026-04-21 15:40 | 61.17448 | 24.96498 | 20440 ft | 380 kts | 191° |
| 2026-04-21 15:41 | 61.14869 | 24.95311 | 19965 ft | 378 kts | 191° |
| 2026-04-21 15:41 | 61.12329 | 24.94143 | 19496 ft | 377 kts | 192° |
| 2026-04-21 15:41 | 61.09772 | 24.92963 | 19024 ft | 375 kts | 192° |
| 2026-04-21 15:41 | 61.07223 | 24.91784 | 18557 ft | 374 kts | 192° |
| 2026-04-21 15:42 | 61.04684 | 24.90612 | 18050 ft | 373 kts | 192° |
| 2026-04-21 15:42 | 61.02151 | 24.89446 | 17590 ft | 370 kts | 192° |
| 2026-04-21 15:42 | 60.99643 | 24.88295 | 17143 ft | 368 kts | 192° |
| 2026-04-21 15:42 | 60.97152 | 24.87157 | 16702 ft | 366 kts | 192° |
| 2026-04-21 15:43 | 60.94702 | 24.86036 | 16252 ft | 365 kts | 192° |
| 2026-04-21 15:43 | 60.92219 | 24.84900 | 15813 ft | 363 kts | 192° |
| 2026-04-21 15:43 | 60.89757 | 24.83773 | 15372 ft | 362 kts | 192° |
| 2026-04-21 15:43 | 60.87301 | 24.82654 | 14932 ft | 361 kts | 193° |
| 2026-04-21 15:44 | 60.84851 | 24.81542 | 14491 ft | 360 kts | 193° |
| 2026-04-21 15:44 | 60.82413 | 24.80443 | 14052 ft | 359 kts | 192° |
| 2026-04-21 15:44 | 60.79973 | 24.79347 | 13578 ft | 358 kts | 193° |
| 2026-04-21 15:44 | 60.77550 | 24.78260 | 13126 ft | 355 kts | 192° |
| 2026-04-21 15:45 | 60.75173 | 24.77193 | 12695 ft | 352 kts | 192° |
| 2026-04-21 15:45 | 60.72784 | 24.76117 | 12251 ft | 350 kts | 193° |
| 2026-04-21 15:45 | 60.70411 | 24.75050 | 11803 ft | 347 kts | 192° |
| 2026-04-21 15:45 | 60.68057 | 24.73993 | 11362 ft | 345 kts | 192° |
| 2026-04-21 15:46 | 60.65721 | 24.72947 | 10905 ft | 342 kts | 192° |
| 2026-04-21 15:46 | 60.63422 | 24.71916 | 10375 ft | 343 kts | 192° |
| 2026-04-21 15:46 | 60.61111 | 24.70875 | 10130 ft | 334 kts | 192° |
| 2026-04-21 15:46 | 60.58887 | 24.69875 | 10006 ft | 321 kts | 192° |
| 2026-04-21 15:47 | 60.56740 | 24.68916 | 9815 ft | 311 kts | 192° |
| 2026-04-21 15:47 | 60.54635 | 24.67979 | 9368 ft | 307 kts | 192° |
| 2026-04-21 15:47 | 60.52554 | 24.67055 | 8815 ft | 305 kts | 192° |
| 2026-04-21 15:47 | 60.50505 | 24.66146 | 8282 ft | 303 kts | 192° |
| 2026-04-21 15:48 | 60.48451 | 24.65237 | 7768 ft | 301 kts | 192° |
| 2026-04-21 15:48 | 60.46414 | 24.64331 | 7249 ft | 298 kts | 192° |
| 2026-04-21 15:48 | 60.44389 | 24.63429 | 6753 ft | 296 kts | 191° |
| 2026-04-21 15:48 | 60.42386 | 24.62541 | 6246 ft | 293 kts | 192° |
| 2026-04-21 15:49 | 60.40402 | 24.61666 | 5742 ft | 289 kts | 192° |
| 2026-04-21 15:49 | 60.38443 | 24.60801 | 5211 ft | 287 kts | 192° |
| 2026-04-21 15:49 | 60.36500 | 24.59946 | 4801 ft | 284 kts | 192° |
| 2026-04-21 15:49 | 60.34572 | 24.59103 | 4352 ft | 282 kts | 192° |
| 2026-04-21 15:50 | 60.32652 | 24.58264 | 3906 ft | 281 kts | 193° |
| 2026-04-21 15:50 | 60.30800 | 24.57453 | 3725 ft | 269 kts | 192° |
| 2026-04-21 15:50 | 60.29006 | 24.56682 | 3594 ft | 257 kts | 190° |
| 2026-04-21 15:50 | 60.27261 | 24.56675 | 3443 ft | 247 kts | 168° |
| 2026-04-21 15:51 | 60.25671 | 24.57854 | 3181 ft | 243 kts | 147° |
| 2026-04-21 15:51 | 60.24390 | 24.59950 | 3041 ft | 232 kts | 134° |
| 2026-04-21 15:51 | 60.23226 | 24.62108 | 2935 ft | 222 kts | 135° |
| 2026-04-21 15:51 | 60.22118 | 24.64170 | 2831 ft | 212 kts | 131° |
| 2026-04-21 15:52 | 60.21487 | 24.66636 | 2736 ft | 195 kts | 93° |
| 2026-04-21 15:52 | 60.21684 | 24.69152 | 2652 ft | 176 kts | 60° |
| 2026-04-21 15:52 | 60.22167 | 24.70448 | 2550 ft | 168 kts | 43° |
| 2026-04-21 15:52 | 60.23186 | 24.72658 | 2421 ft | 156 kts | 43° |
| 2026-04-21 15:53 | 60.23898 | 24.74211 | 2272 ft | 145 kts | 44° |
| 2026-04-21 15:53 | 60.24556 | 24.75646 | 2101 ft | 135 kts | 43° |
| 2026-04-21 15:53 | 60.25185 | 24.77015 | 1924 ft | 132 kts | 43° |
| 2026-04-21 15:53 | 60.25804 | 24.78356 | 1744 ft | 130 kts | 44° |
| 2026-04-21 15:54 | 60.26418 | 24.79683 | 1569 ft | 129 kts | 44° |
| 2026-04-21 15:54 | 60.27026 | 24.81019 | 1394 ft | 129 kts | 44° |
| 2026-04-21 15:54 | 60.27621 | 24.82369 | 1221 ft | 128 kts | 43° |
| 2026-04-21 15:54 | 60.28225 | 24.83693 | 1027 ft | 129 kts | 44° |
| 2026-04-21 15:55 | 60.28836 | 24.85013 | 849 ft | 130 kts | 44° |
| 2026-04-21 15:55 | 60.29450 | 24.86359 | 710 ft | 130 kts | 44° |
| 2026-04-21 15:55 | 60.30054 | 24.87665 | 528 ft | 130 kts | 44° |
| 2026-04-21 15:55 | 60.30664 | 24.88991 | 375 ft | 129 kts | 45° |
| 2026-04-21 15:56 | 60.31267 | 24.90331 | 200 ft | 128 kts | 44° |
| 2026-04-21 15:56 | 60.31839 | 24.91574 | 149 ft | 108 kts | 46° |
| 2026-04-21 15:56 | 60.32232 | 24.92432 | 165 ft | 60 kts | 47° |
| 2026-04-21 15:56 | 60.32493 | 24.93009 | 176 ft | 52 kts | 48° |
| 2026-04-21 15:57 | 60.32719 | 24.93516 | 180 ft | 46 kts | 48° |
| 2026-04-21 15:57 | 60.32919 | 24.93959 | 195 ft | 41 kts | 47° |
| 2026-04-21 15:57 | 60.33047 | 24.94271 | 187 ft | 23 kts | 70° |
| 2026-04-21 15:57 | 60.33047 | 24.94584 | 183 ft | 19 kts | 97° |
| 2026-04-21 15:58 | 60.32961 | 24.94795 | 177 ft | 22 kts | 141° |
| 2026-04-21 15:58 | 60.32826 | 24.94963 | 175 ft | 23 kts | 162° |
| 2026-04-21 15:58 | 60.32725 | 24.95026 | 178 ft | 22 kts | 162° |
| 2026-04-21 15:58 | 60.32581 | 24.95118 | 181 ft | 22 kts | 162° |
| 2026-04-21 15:59 | 60.32432 | 24.95215 | 178 ft | 23 kts | 161° |
| 2026-04-21 15:59 | 60.32283 | 24.95373 | 176 ft | 15 kts | 134° |
| 2026-04-21 15:59 | 60.32229 | 24.95474 | 175 ft | 16 kts | 138° |
| 2026-04-21 15:59 | 60.32140 | 24.95635 | 173 ft | 18 kts | 137° |
| 2026-04-21 16:00 | 60.32048 | 24.95807 | 173 ft | 18 kts | 137° |
| 2026-04-21 16:00 | 60.31947 | 24.95996 | 169 ft | 21 kts | 137° |
| 2026-04-21 16:00 | 60.31859 | 24.96175 | 164 ft | 13 kts | 116° |
| 2026-04-21 16:00 | 60.31866 | 24.96343 | 163 ft | 11 kts | 62° |
| 2026-04-21 16:01 | 60.31909 | 24.96447 | 163 ft | 5 kts | 57° |
| 2026-04-21 16:01 | 60.31889 | 24.96513 | 163 ft | 6 kts | 140° |
| 2026-04-21 16:01 | 60.31873 | 24.96542 | 163 ft | 1 kts | 138° |
| 2026-04-21 16:01 | 60.31870 | 24.96547 | 163 ft | 0 kts | 137° |
| 2026-04-21 16:02 | 60.31870 | 24.96548 | 163 ft | 0 kts | 137° |